Time;durP1;ratioP1;P1;durP2;ratioP2;P2;SDS_P1;SDS_P2;PMS_P1;PMS_P2;Temp;Humidity;BMP_temperature;BMP_pressure;BME280_temperature;BME280_humidity;BME280_pressure;Samples;Min_cycle;Max_cycle;Signal;HPM_P1;HPM_P2
2021/09/09 00:02:25;;;;;;;18.90;9.68;;;19.70;91.60;;;;;;4917201;29;20510;-93
2021/09/09 00:04:50;;;;;;;16.70;8.90;;;19.60;91.60;;;;;;4917191;29;20063;-91
2021/09/09 00:07:16;;;;;;;16.55;9.55;;;19.60;91.80;;;;;;4916946;29;20119;-93
2021/09/09 00:09:42;;;;;;;13.02;8.13;;;19.50;92.00;;;;;;4917043;29;20127;-91
2021/09/09 00:12:08;;;;;;;15.63;8.50;;;19.50;92.20;;;;;;4917075;29;20119;-91
2021/09/09 00:14:33;;;;;;;12.07;8.25;;;19.50;92.50;;;;;;4916355;29;20505;-93
2021/09/09 00:16:59;;;;;;;12.45;8.05;;;19.40;92.70;;;;;;4918503;29;20203;-92
2021/09/09 00:19:25;;;;;;;20.58;8.60;;;19.30;93.00;;;;;;4920053;29;20047;-92
2021/09/09 00:21:50;;;;;;;18.95;8.27;;;19.30;93.30;;;;;;4919893;29;20398;-91
2021/09/09 00:24:16;;;;;;;17.05;8.80;;;19.20;93.50;;;;;;4919991;29;20091;-92
2021/09/09 00:26:42;;;;;;;13.82;8.38;;;19.30;93.80;;;;;;4919888;29;20039;-92
2021/09/09 00:29:07;;;;;;;15.82;8.35;;;19.30;93.90;;;;;;4920253;29;20442;-94
2021/09/09 00:31:33;;;;;;;19.60;10.60;;;19.30;93.90;;;;;;4920504;29;20036;-93
2021/09/09 00:33:59;;;;;;;23.25;11.32;;;19.30;94.10;;;;;;4904961;29;20043;-92
2021/09/09 00:36:24;;;;;;;21.48;10.68;;;19.20;94.40;;;;;;4906107;29;20067;-93
2021/09/09 00:38:50;;;;;;;22.13;9.57;;;19.10;94.80;;;;;;4906762;29;20394;-92
2021/09/09 00:41:16;;;;;;;15.95;8.73;;;19.10;95.20;;;;;;4922056;29;20035;-92
2021/09/09 00:43:41;;;;;;;19.52;10.27;;;19.10;95.50;;;;;;4922809;29;20057;-91
2021/09/09 00:46:07;;;;;;;18.77;10.10;;;19.10;95.90;;;;;;4907696;29;20175;-92
2021/09/09 00:48:34;;;;;;;14.73;9.55;;;19.10;96.20;;;;;;4906500;29;20478;-93
2021/09/09 00:50:59;;;;;;;14.27;9.50;;;19.10;96.40;;;;;;4921542;29;20052;-93
2021/09/09 00:53:26;;;;;;;15.07;8.80;;;19.10;96.60;;;;;;4922564;29;20486;-92
2021/09/09 00:55:52;;;;;;;13.98;9.40;;;19.10;96.90;;;;;;4921825;29;20099;-92
2021/09/09 00:58:18;;;;;;;18.38;9.05;;;19.10;97.20;;;;;;4921564;29;20028;-91
2021/09/09 01:00:44;;;;;;;11.63;9.27;;;19.10;97.60;;;;;;4921474;29;20032;-92
2021/09/09 01:03:10;;;;;;;14.10;9.27;;;19.00;97.90;;;;;;4921183;29;20039;-91
2021/09/09 01:05:37;;;;;;;25.48;11.07;;;19.00;98.20;;;;;;4921049;29;20035;-93
2021/09/09 01:08:04;;;;;;;18.27;10.25;;;18.90;98.50;;;;;;4904999;29;20028;-91
2021/09/09 01:10:30;;;;;;;22.95;10.55;;;18.90;98.90;;;;;;4904495;29;20071;-91
2021/09/09 01:12:56;;;;;;;14.07;9.35;;;18.80;99.10;;;;;;4904301;29;20028;-92
2021/09/09 01:15:22;;;;;;;15.13;10.20;;;18.80;99.70;;;;;;4920085;29;20164;-92
2021/09/09 01:17:48;;;;;;;15.82;9.63;;;18.80;99.90;;;;;;4904755;29;20099;-92
2021/09/09 01:20:14;;;;;;;16.70;9.75;;;18.80;99.90;;;;;;4920569;29;20028;-93
2021/09/09 01:22:42;;;;;;;23.02;10.90;;;18.80;99.90;;;;;;4921029;29;20044;-91
2021/09/09 01:25:10;;;;;;;17.42;10.68;;;18.80;99.90;;;;;;4903154;29;20039;-93
2021/09/09 01:27:35;;;;;;;16.02;9.18;;;18.70;99.90;;;;;;4919206;29;20501;-92
2021/09/09 01:30:02;;;;;;;19.67;9.63;;;18.70;99.90;;;;;;4901896;29;20050;-93
2021/09/09 01:32:27;;;;;;;17.13;10.05;;;18.70;99.90;;;;;;4917246;29;20040;-93
2021/09/09 01:34:53;;;;;;;17.38;9.70;;;18.70;99.90;;;;;;4901538;29;20050;-94
2021/09/09 01:37:19;;;;;;;18.65;9.38;;;18.70;99.90;;;;;;4903727;29;20438;-92
2021/09/09 01:39:47;;;;;;;23.13;10.88;;;18.70;99.90;;;;;;4920167;29;20024;-91
2021/09/09 01:42:13;;;;;;;19.45;10.57;;;18.70;99.90;;;;;;4919253;29;20490;-93
2021/09/09 01:44:39;;;;;;;17.48;10.18;;;18.60;99.90;;;;;;4920279;29;20028;-93
2021/09/09 01:47:05;;;;;;;19.15;9.85;;;18.50;99.90;;;;;;4921226;29;20028;-92
2021/09/09 01:49:31;;;;;;;16.15;10.18;;;18.50;99.90;;;;;;4904417;29;20032;-93
2021/09/09 01:51:56;;;;;;;12.80;9.13;;;18.50;99.90;;;;;;4919428;29;20059;-93
2021/09/09 01:54:22;;;;;;;17.60;10.15;;;18.50;99.90;;;;;;4918387;29;20032;-92
2021/09/09 01:56:48;;;;;;;16.45;9.68;;;18.40;99.90;;;;;;4918444;29;20363;-93
2021/09/09 01:59:14;;;;;;;18.63;11.50;;;18.40;99.90;;;;;;4917894;29;20032;-94
2021/09/09 02:01:39;;;;;;;17.33;10.15;;;18.30;99.90;;;;;;4917101;29;20068;-92
2021/09/09 02:04:05;;;;;;;14.90;9.95;;;18.30;99.90;;;;;;4917597;29;20036;-93
2021/09/09 02:06:32;;;;;;;14.57;10.52;;;18.30;99.90;;;;;;4917143;29;20056;-92
2021/09/09 02:08:59;;;;;;;28.50;10.98;;;18.30;99.90;;;;;;4917092;29;20028;-93
2021/09/09 02:11:25;;;;;;;17.83;9.88;;;18.20;99.90;;;;;;4918437;29;20040;-93
2021/09/09 02:13:52;;;;;;;17.10;9.95;;;18.20;99.90;;;;;;4917025;29;20028;-93
2021/09/09 02:16:18;;;;;;;16.55;10.02;;;18.20;99.90;;;;;;4916785;29;20028;-93
2021/09/09 02:18:44;;;;;;;16.10;10.20;;;18.20;99.90;;;;;;4916947;29;20043;-92
2021/09/09 02:21:10;;;;;;;18.17;9.98;;;18.20;99.90;;;;;;4917061;29;20091;-93
2021/09/09 02:23:35;;;;;;;14.18;9.85;;;18.20;99.90;;;;;;4916958;29;20035;-92
2021/09/09 02:26:01;;;;;;;14.45;10.20;;;18.10;99.90;;;;;;4916776;29;20028;-93
2021/09/09 02:28:26;;;;;;;16.92;10.23;;;18.00;99.90;;;;;;4917010;29;20024;-93
2021/09/09 02:30:52;;;;;;;13.27;9.27;;;17.90;99.90;;;;;;4916561;29;20040;-91
2021/09/09 02:33:18;;;;;;;16.75;10.35;;;17.90;99.90;;;;;;4916565;29;20048;-92
2021/09/09 02:35:43;;;;;;;18.60;9.95;;;17.90;99.90;;;;;;4917395;29;20024;-92
2021/09/09 02:38:09;;;;;;;21.30;10.15;;;17.90;99.90;;;;;;4917503;29;20035;-92
2021/09/09 02:40:35;;;;;;;16.85;10.55;;;17.90;99.90;;;;;;4915863;29;20036;-92
2021/09/09 02:43:00;;;;;;;14.48;9.85;;;17.90;99.90;;;;;;4916667;29;20084;-93
2021/09/09 02:45:26;;;;;;;22.95;11.32;;;17.80;99.90;;;;;;4916031;29;20032;-92
2021/09/09 02:47:52;;;;;;;17.02;10.77;;;17.80;99.90;;;;;;4915401;29;20048;-92
2021/09/09 02:50:18;;;;;;;20.88;11.05;;;17.80;99.90;;;;;;4916073;29;20040;-94
2021/09/09 02:52:44;;;;;;;18.70;10.80;;;17.80;99.90;;;;;;4916017;29;20095;-92
2021/09/09 02:55:10;;;;;;;18.65;10.45;;;17.80;99.90;;;;;;4915615;29;20529;-92
2021/09/09 02:57:40;;;;;;;21.63;10.38;;;17.70;99.90;;;;;;4915733;29;20036;-94
2021/09/09 03:00:07;;;;;;;15.57;9.88;;;17.70;99.90;;;;;;4915296;29;20064;-93
2021/09/09 03:02:33;;;;;;;16.92;11.02;;;17.60;99.90;;;;;;4900249;29;20036;-93
2021/09/09 03:04:58;;;;;;;17.88;10.73;;;17.70;99.90;;;;;;4899669;29;20095;-93
2021/09/09 03:07:24;;;;;;;20.95;11.48;;;17.60;99.90;;;;;;4900558;29;20039;-92
2021/09/09 03:09:50;;;;;;;21.98;10.60;;;17.60;99.90;;;;;;4900053;29;20047;-92
2021/09/09 03:12:16;;;;;;;16.60;10.70;;;17.70;99.90;;;;;;4900080;29;20063;-92
2021/09/09 03:14:42;;;;;;;81.15;32.13;;;17.60;99.90;;;;;;4900918;29;20032;-93
2021/09/09 03:17:07;;;;;;;37.00;18.63;;;17.60;99.90;;;;;;4901627;29;20031;-92
2021/09/09 03:19:33;;;;;;;35.88;17.25;;;17.60;99.90;;;;;;4901355;29;20130;-92
2021/09/09 03:21:59;;;;;;;24.88;13.40;;;17.50;99.90;;;;;;4901501;29;20016;-92
2021/09/09 03:24:24;;;;;;;25.35;11.88;;;17.50;99.90;;;;;;4904653;29;20029;-92
2021/09/09 03:26:50;;;;;;;22.45;11.50;;;17.50;99.90;;;;;;4912182;29;20043;-91
2021/09/09 03:29:17;;;;;;;17.25;11.10;;;17.50;99.90;;;;;;4911563;29;20120;-91
2021/09/09 03:31:42;;;;;;;16.33;10.88;;;17.50;99.90;;;;;;4909209;29;20039;-91
2021/09/09 03:34:08;;;;;;;18.38;10.73;;;17.60;99.90;;;;;;4908157;29;20498;-92
2021/09/09 03:36:34;;;;;;;17.67;11.45;;;17.60;99.90;;;;;;4905248;29;20039;-93
2021/09/09 03:39:00;;;;;;;17.27;11.05;;;17.60;99.90;;;;;;4902008;29;20505;-93
2021/09/09 03:41:26;;;;;;;17.80;11.35;;;17.60;99.90;;;;;;4901982;29;20482;-91
2021/09/09 03:43:51;;;;;;;17.50;11.80;;;17.60;99.90;;;;;;4901728;29;20036;-90
2021/09/09 03:46:17;;;;;;;24.83;12.00;;;17.60;99.90;;;;;;4901282;29;20044;-93
2021/09/09 03:48:43;;;;;;;27.25;13.80;;;17.70;99.90;;;;;;4901449;29;20091;-92
2021/09/09 03:51:09;;;;;;;22.67;13.63;;;17.60;99.90;;;;;;4903062;29;20490;-92
2021/09/09 03:53:34;;;;;;;21.95;14.93;;;17.60;99.90;;;;;;4905566;29;20024;-93
2021/09/09 03:56:00;;;;;;;29.50;15.95;;;17.50;99.90;;;;;;4906650;29;20028;-91
2021/09/09 03:58:26;;;;;;;23.33;14.95;;;17.50;99.90;;;;;;4917742;29;20028;-93
2021/09/09 04:00:51;;;;;;;26.40;15.60;;;17.40;99.90;;;;;;4920979;29;20051;-92
2021/09/09 04:03:17;;;;;;;26.75;13.68;;;17.40;99.90;;;;;;4921325;29;20088;-91
2021/09/09 04:05:42;;;;;;;22.90;13.38;;;17.30;99.90;;;;;;4919399;29;20060;-91
2021/09/09 04:08:08;;;;;;;25.98;13.05;;;17.30;99.90;;;;;;4916486;29;20027;-91
2021/09/09 04:10:35;;;;;;;21.10;12.57;;;17.30;99.90;;;;;;4910801;29;20483;-92
2021/09/09 04:13:00;;;;;;;22.85;13.45;;;17.30;99.90;;;;;;4908209;29;20032;-93
2021/09/09 04:15:26;;;;;;;21.55;12.40;;;17.20;99.90;;;;;;4906108;29;20064;-92
2021/09/09 04:17:52;;;;;;;20.92;12.60;;;17.20;99.90;;;;;;4905903;29;20035;-92
2021/09/09 04:20:18;;;;;;;19.95;12.43;;;17.20;99.90;;;;;;4905439;29;20035;-92
2021/09/09 04:22:43;;;;;;;20.10;12.65;;;17.30;99.90;;;;;;4905486;29;20039;-93
2021/09/09 04:25:10;;;;;;;21.42;12.80;;;17.30;99.90;;;;;;4905759;29;20217;-94
2021/09/09 04:27:36;;;;;;;20.13;12.90;;;17.30;99.90;;;;;;4906627;29;20024;-93
2021/09/09 04:30:03;;;;;;;19.42;13.68;;;17.20;99.90;;;;;;4907848;29;20040;-94
2021/09/09 04:32:29;;;;;;;21.77;13.30;;;17.20;99.90;;;;;;4906551;29;20582;-92
2021/09/09 04:34:54;;;;;;;17.27;12.07;;;17.20;99.90;;;;;;4907205;29;20051;-92
2021/09/09 04:37:20;;;;;;;24.63;13.70;;;17.20;99.90;;;;;;4907253;29;20046;-92
2021/09/09 04:39:46;;;;;;;20.70;13.90;;;17.20;99.90;;;;;;4908971;29;20063;-94
2021/09/09 04:42:11;;;;;;;29.35;14.57;;;17.20;99.90;;;;;;4912621;29;20059;-93
2021/09/09 04:44:38;;;;;;;26.17;14.07;;;17.20;99.90;;;;;;4909163;29;20063;-93
2021/09/09 04:47:05;;;;;;;21.45;14.68;;;17.20;99.90;;;;;;4915668;29;20028;-95
2021/09/09 04:49:31;;;;;;;20.13;13.48;;;17.10;99.90;;;;;;4917643;29;20032;-91
2021/09/09 04:51:56;;;;;;;20.70;13.15;;;17.10;99.90;;;;;;4917275;29;20036;-94
2021/09/09 04:54:22;;;;;;;21.27;13.32;;;17.10;99.90;;;;;;4911141;29;20028;-93
2021/09/09 04:56:48;;;;;;;18.60;12.80;;;17.10;99.90;;;;;;4911241;29;20036;-92
2021/09/09 04:59:15;;;;;;;22.40;14.10;;;17.10;99.90;;;;;;4908769;29;20035;-92
2021/09/09 05:01:41;;;;;;;19.63;13.85;;;17.00;99.90;;;;;;4893852;29;20032;-92
2021/09/09 05:04:06;;;;;;;22.52;13.93;;;17.00;99.90;;;;;;4910036;29;20105;-92
2021/09/09 05:06:32;;;;;;;21.63;13.50;;;17.00;99.90;;;;;;4905469;29;20436;-93
2021/09/09 05:08:58;;;;;;;22.70;14.10;;;17.00;99.90;;;;;;4904263;29;20050;-92
2021/09/09 05:11:24;;;;;;;24.48;13.85;;;16.90;99.90;;;;;;4904373;29;20032;-95
2021/09/09 05:13:49;;;;;;;23.77;14.82;;;16.90;99.90;;;;;;4903766;29;20028;-93
2021/09/09 05:16:15;;;;;;;25.50;13.82;;;16.80;99.90;;;;;;4903163;29;20496;-93
2021/09/09 05:18:40;;;;;;;23.25;14.23;;;16.80;99.90;;;;;;4903057;29;20047;-93
2021/09/09 05:21:06;;;;;;;21.60;14.73;;;16.80;99.90;;;;;;4902657;29;20025;-94
2021/09/09 05:23:32;;;;;;;20.77;14.05;;;16.70;99.90;;;;;;4903219;29;20036;-93
2021/09/09 05:25:57;;;;;;;21.67;14.35;;;16.80;99.90;;;;;;4903338;29;20028;-92
2021/09/09 05:28:23;;;;;;;20.55;13.95;;;16.80;99.90;;;;;;4903171;29;20024;-93
2021/09/09 05:30:49;;;;;;;24.30;14.27;;;16.80;99.90;;;;;;4902602;29;20130;-92
2021/09/09 05:33:15;;;;;;;22.25;13.93;;;16.80;99.90;;;;;;4902066;29;20045;-92
2021/09/09 05:35:40;;;;;;;38.90;22.35;;;16.80;99.90;;;;;;4903646;29;20155;-95
2021/09/09 05:38:08;;;;;;;31.67;18.95;;;16.70;99.90;;;;;;4908396;29;20061;-91
2021/09/09 05:40:34;;;;;;;24.45;15.52;;;16.70;99.90;;;;;;4906292;29;20413;-93
2021/09/09 05:42:59;;;;;;;23.75;15.15;;;16.70;99.90;;;;;;4903605;29;20028;-91
2021/09/09 05:45:25;;;;;;;25.45;15.80;;;16.60;99.90;;;;;;4905868;29;20501;-93
2021/09/09 05:47:51;;;;;;;28.20;17.35;;;16.60;99.90;;;;;;4904714;29;20032;-93
2021/09/09 05:50:17;;;;;;;30.08;16.83;;;16.60;99.90;;;;;;4904589;29;20036;-93
2021/09/09 05:52:47;;;;;;;23.83;15.82;;;16.60;99.90;;;;;;4903436;29;20028;-92
2021/09/09 05:55:13;;;;;;;26.45;16.33;;;16.60;99.90;;;;;;4903479;29;20039;-92
2021/09/09 05:57:39;;;;;;;24.17;15.65;;;16.70;99.90;;;;;;4920565;29;20024;-92
2021/09/09 06:00:06;;;;;;;29.55;15.48;;;16.70;99.90;;;;;;4904381;29;20028;-91
2021/09/09 06:02:33;;;;;;;23.55;14.77;;;16.70;99.90;;;;;;4903270;29;20032;-94
2021/09/09 06:05:00;;;;;;;29.42;16.60;;;16.70;99.90;;;;;;4901704;29;20025;-93
2021/09/09 06:07:27;;;;;;;24.70;16.10;;;16.70;99.90;;;;;;4918246;29;20046;-94
2021/09/09 06:09:53;;;;;;;23.23;15.02;;;16.70;99.90;;;;;;4912221;29;20032;-93
2021/09/09 06:12:19;;;;;;;26.38;15.38;;;16.70;99.90;;;;;;4917234;29;20460;-91
2021/09/09 06:14:45;;;;;;;29.50;16.52;;;16.70;99.90;;;;;;4916400;29;20107;-92
2021/09/09 06:17:11;;;;;;;25.42;16.73;;;16.70;99.90;;;;;;4916508;29;20115;-91
2021/09/09 06:19:36;;;;;;;28.63;16.13;;;16.70;99.90;;;;;;4901222;29;20024;-92
2021/09/09 06:22:03;;;;;;;32.15;16.70;;;16.60;99.90;;;;;;4901037;29;20508;-92
2021/09/09 06:24:28;;;;;;;26.63;16.58;;;16.60;99.90;;;;;;4917384;29;20028;-91
2021/09/09 06:26:54;;;;;;;25.05;15.80;;;16.50;99.90;;;;;;4916464;29;20475;-93
2021/09/09 06:29:20;;;;;;;24.48;15.30;;;16.60;99.90;;;;;;4916124;29;20215;-93
2021/09/09 06:31:46;;;;;;;24.65;15.70;;;16.60;99.90;;;;;;4900811;29;20031;-93
2021/09/09 06:34:12;;;;;;;26.23;15.07;;;16.60;99.90;;;;;;4900195;29;20048;-91
2021/09/09 06:36:38;;;;;;;23.33;15.32;;;16.60;99.90;;;;;;4916174;29;20059;-93
2021/09/09 06:39:04;;;;;;;25.55;15.57;;;16.60;99.90;;;;;;4900989;29;20077;-93
2021/09/09 06:41:30;;;;;;;24.45;15.40;;;16.70;99.90;;;;;;4916111;29;20035;-92
2021/09/09 06:43:55;;;;;;;26.17;16.80;;;16.70;99.90;;;;;;4916095;29;20063;-93
2021/09/09 06:46:21;;;;;;;26.60;16.13;;;16.80;99.90;;;;;;4916343;29;20031;-92
2021/09/09 06:48:46;;;;;;;26.52;15.57;;;16.80;99.90;;;;;;4899944;29;20043;-92
2021/09/09 06:51:13;;;;;;;23.60;15.82;;;16.80;99.90;;;;;;4915913;29;20086;-94
2021/09/09 06:53:39;;;;;;;24.35;15.23;;;16.90;99.90;;;;;;4917128;29;20020;-93
2021/09/09 06:56:05;;;;;;;21.45;15.45;;;16.90;99.90;;;;;;4916795;29;20372;-92
2021/09/09 06:58:30;;;;;;;26.67;17.63;;;17.00;99.90;;;;;;4916053;29;20111;-93
2021/09/09 07:00:56;;;;;;;26.52;16.75;;;17.00;99.90;;;;;;4900471;29;20024;-94
2021/09/09 07:03:29;;;;;;;26.75;17.00;;;17.10;99.90;;;;;;4917591;29;20047;-91
2021/09/09 07:05:54;;;;;;;28.13;15.65;;;17.10;99.90;;;;;;4900492;29;20040;-90
2021/09/09 07:08:20;;;;;;;27.67;16.25;;;17.00;99.90;;;;;;4900872;29;20036;-92
2021/09/09 07:13:12;;;;;;;27.65;16.58;;;17.00;99.90;;;;;;4922876;23;20509;-89
2021/09/09 07:15:38;;;;;;;23.73;16.10;;;17.00;99.90;;;;;;4909633;29;20020;-89
2021/09/09 07:18:04;;;;;;;29.23;17.65;;;17.00;99.90;;;;;;4915742;29;20036;-89
2021/09/09 07:20:30;;;;;;;27.83;16.63;;;17.00;99.90;;;;;;4918425;29;20059;-89
2021/09/09 07:22:55;;;;;;;26.50;16.83;;;17.00;99.90;;;;;;4918015;29;20063;-89
2021/09/09 07:25:21;;;;;;;27.75;16.33;;;17.00;99.90;;;;;;4917943;29;20452;-90
2021/09/09 07:27:47;;;;;;;30.35;17.02;;;17.10;99.90;;;;;;4917547;29;20031;-89
2021/09/09 07:30:12;;;;;;;29.10;17.55;;;17.10;99.90;;;;;;4917814;29;20074;-89
2021/09/09 07:32:38;;;;;;;25.77;16.23;;;17.20;99.90;;;;;;4935827;29;20032;-90
2021/09/09 07:35:05;;;;;;;25.40;16.60;;;17.20;99.90;;;;;;4918693;29;20035;-88
2021/09/09 07:37:30;;;;;;;26.88;15.63;;;17.30;99.90;;;;;;4918662;29;20039;-90
2021/09/09 07:39:56;;;;;;;26.10;16.88;;;17.40;99.90;;;;;;4918660;29;20036;-89
2021/09/09 07:42:21;;;;;;;24.98;16.38;;;17.50;99.90;;;;;;4936455;29;20035;-88
2021/09/09 07:44:47;;;;;;;23.08;15.40;;;17.50;99.90;;;;;;4918386;29;20023;-89
2021/09/09 07:47:12;;;;;;;24.30;15.88;;;17.60;99.90;;;;;;4916015;29;20028;-88
2021/09/09 07:49:38;;;;;;;27.77;16.08;;;17.70;99.90;;;;;;4918853;29;20035;-89
2021/09/09 07:52:04;;;;;;;30.05;17.23;;;17.70;99.90;;;;;;4920557;29;20097;-89
2021/09/09 07:54:29;;;;;;;25.38;15.82;;;17.80;99.90;;;;;;4915391;29;20028;-90
2021/09/09 07:56:55;;;;;;;22.20;15.25;;;17.80;99.90;;;;;;4916713;29;20020;-89
2021/09/09 07:59:21;;;;;;;23.48;15.68;;;17.90;99.90;;;;;;4915385;29;20056;-89
2021/09/09 08:01:47;;;;;;;26.45;15.68;;;18.00;99.90;;;;;;4917305;29;20028;-89
2021/09/09 08:04:16;;;;;;;23.15;15.68;;;18.00;99.90;;;;;;4918578;29;20032;-88
2021/09/09 08:06:45;;;;;;;25.50;15.75;;;18.00;99.90;;;;;;4931577;29;20024;-89
2021/09/09 08:09:11;;;;;;;22.98;16.25;;;18.10;99.90;;;;;;4916619;29;20040;-90
2021/09/09 08:11:38;;;;;;;23.42;16.52;;;18.20;99.90;;;;;;4915865;29;20571;-89
2021/09/09 08:14:04;;;;;;;27.38;17.25;;;18.20;99.90;;;;;;4915438;29;20147;-90
2021/09/09 08:16:30;;;;;;;27.33;17.08;;;18.30;99.90;;;;;;4916175;29;20119;-89
2021/09/09 08:18:55;;;;;;;27.38;17.27;;;18.40;99.90;;;;;;4915693;29;20075;-90
2021/09/09 08:21:21;;;;;;;22.83;16.45;;;18.50;99.90;;;;;;4916215;29;20055;-89
2021/09/09 08:23:46;;;;;;;23.73;16.90;;;18.70;99.90;;;;;;4915513;29;20144;-89
2021/09/09 08:26:12;;;;;;;24.85;16.35;;;18.90;99.90;;;;;;4915660;29;20083;-90
2021/09/09 08:28:38;;;;;;;25.85;17.27;;;19.00;99.90;;;;;;4915559;29;20051;-89
2021/09/09 08:31:05;;;;;;;23.13;16.52;;;19.10;99.90;;;;;;4915813;29;20028;-89
2021/09/09 08:33:32;;;;;;;30.55;17.25;;;19.30;99.90;;;;;;4915323;29;20025;-89
2021/09/09 08:36:03;;;;;;;27.63;17.27;;;19.40;99.90;;;;;;4916474;29;20096;-90
2021/09/09 08:38:29;;;;;;;26.98;17.23;;;19.50;99.90;;;;;;4902853;29;20036;-90
2021/09/09 08:41:01;;;;;;;23.23;15.23;;;19.50;99.90;;;;;;4918968;29;20092;-90
2021/09/09 08:43:28;;;;;;;25.58;15.88;;;19.60;99.90;;;;;;4920032;29;20028;-90
2021/09/09 08:45:58;;;;;;;23.85;15.60;;;19.60;99.90;;;;;;4921613;29;20059;-89
2021/09/09 08:48:24;;;;;;;26.83;16.35;;;19.60;99.90;;;;;;4921960;29;20111;-89
2021/09/09 08:50:50;;;;;;;25.08;17.10;;;19.70;99.90;;;;;;4921865;29;20035;-90
2021/09/09 08:53:18;;;;;;;27.35;16.02;;;19.70;99.90;;;;;;4921574;29;20028;-89
2021/09/09 08:55:49;;;;;;;21.73;15.32;;;19.80;99.90;;;;;;4921186;29;20028;-91
2021/09/09 08:58:15;;;;;;;25.08;16.35;;;19.90;99.90;;;;;;4921545;29;20393;-90
2021/09/09 09:01:11;;;;;;;27.60;15.25;;;20.00;99.90;;;;;;4921477;29;20043;-90
2021/09/09 09:03:52;;;;;;;23.73;15.57;;;20.10;99.90;;;;;;4900351;29;20032;-89
2021/09/09 09:06:26;;;;;;;25.05;15.85;;;20.20;99.90;;;;;;4918257;29;20087;-90
2021/09/09 09:08:59;;;;;;;33.97;16.15;;;20.30;99.90;;;;;;4920416;29;20441;-89
2021/09/09 09:11:30;;;;;;;26.02;15.68;;;20.40;99.90;;;;;;4935616;29;20027;-89
2021/09/09 09:16:57;;;;;;;24.73;13.95;;;20.60;99.90;;;;;;4911298;29;20032;-90
2021/09/09 09:19:52;;;;;;;28.75;16.00;;;20.80;99.90;;;;;;4936488;29;20079;-90
2021/09/09 09:22:17;;;;;;;29.73;16.08;;;20.90;99.90;;;;;;4912154;29;20107;-91
2021/09/09 09:24:49;;;;;;;22.70;14.57;;;21.00;99.90;;;;;;4916190;29;20518;-91
2021/09/09 09:27:17;;;;;;;26.85;16.13;;;21.10;99.90;;;;;;4913915;29;20038;-91
2021/09/09 09:29:59;;;;;;;23.73;15.57;;;21.10;99.90;;;;;;4903016;29;20028;-90
2021/09/09 09:32:25;;;;;;;31.85;16.60;;;21.10;99.90;;;;;;4903193;29;20047;-91
2021/09/09 09:35:13;;;;;;;27.40;17.83;;;21.20;99.90;;;;;;4914733;29;20070;-91
2021/09/09 09:38:05;;;;;;;28.08;14.68;;;21.20;99.90;;;;;;4933778;29;20034;-90
2021/09/09 09:40:43;;;;;;;23.52;13.68;;;21.30;99.90;;;;;;4921258;29;20040;-92
2021/09/09 09:43:11;;;;;;;23.63;16.00;;;21.40;99.90;;;;;;4921053;29;20040;-92
2021/09/09 09:45:50;;;;;;;24.15;14.40;;;21.60;99.90;;;;;;4923498;29;20493;-91
2021/09/09 09:48:31;;;;;;;25.30;15.88;;;21.60;99.90;;;;;;4919199;29;20032;-90
2021/09/09 09:50:56;;;;;;;31.00;16.67;;;21.80;99.90;;;;;;4920570;29;20023;-90
2021/09/09 09:53:22;;;;;;;23.65;16.13;;;21.90;99.90;;;;;;4945268;29;20461;-90
2021/09/09 09:55:48;;;;;;;30.65;16.27;;;22.00;99.90;;;;;;4929942;29;20040;-91
2021/09/09 09:58:17;;;;;;;30.45;17.08;;;22.00;99.90;;;;;;4937157;29;20020;-91
2021/09/09 10:00:44;;;;;;;28.80;17.65;;;22.10;99.90;;;;;;4923182;29;20102;-90
2021/09/09 10:03:10;;;;;;;23.90;16.90;;;22.20;99.90;;;;;;4919761;29;20016;-91
2021/09/09 10:05:37;;;;;;;29.73;17.75;;;22.20;99.90;;;;;;4919855;29;20027;-89
2021/09/09 10:08:07;;;;;;;28.52;17.20;;;22.20;99.90;;;;;;4919805;29;20085;-89
2021/09/09 10:10:33;;;;;;;28.45;16.58;;;22.30;99.90;;;;;;4919475;29;20020;-91
2021/09/09 10:13:00;;;;;;;29.42;17.23;;;22.40;99.90;;;;;;4919739;29;20126;-88
2021/09/09 10:15:27;;;;;;;31.27;18.98;;;22.50;99.90;;;;;;4919336;29;20455;-89
2021/09/09 10:17:54;;;;;;;24.77;16.85;;;22.60;99.90;;;;;;4919215;29;20500;-89
2021/09/09 10:20:39;;;;;;;25.27;16.08;;;22.60;99.90;;;;;;4916461;29;20035;-91
2021/09/09 10:23:15;;;;;;;30.95;17.67;;;22.70;99.80;;;;;;4934190;29;20111;-90
2021/09/09 10:25:55;;;;;;;34.65;17.15;;;22.80;99.60;;;;;;4916893;29;20043;-90
2021/09/09 10:28:33;;;;;;;30.25;17.90;;;23.00;99.30;;;;;;4933594;29;20102;-89
2021/09/09 10:31:03;;;;;;;30.83;17.92;;;23.20;98.90;;;;;;4936050;29;20508;-90
2021/09/09 10:33:29;;;;;;;29.77;16.83;;;23.30;98.50;;;;;;4918934;29;20038;-90
2021/09/09 10:35:55;;;;;;;26.67;16.67;;;23.50;98.20;;;;;;4918918;29;20086;-90
2021/09/09 10:38:21;;;;;;;31.42;17.55;;;23.50;97.90;;;;;;4936068;29;20028;-91
2021/09/09 10:40:47;;;;;;;27.38;17.35;;;23.40;97.80;;;;;;4918836;29;21315;-91
2021/09/09 10:43:24;;;;;;;26.52;17.85;;;23.40;97.70;;;;;;4935712;29;20028;-89
2021/09/09 10:45:59;;;;;;;26.42;17.42;;;23.20;97.90;;;;;;4934414;29;20465;-91
2021/09/09 10:48:27;;;;;;;30.13;18.58;;;23.20;98.20;;;;;;4916873;29;20034;-91
2021/09/09 10:51:02;;;;;;;28.10;18.30;;;23.20;98.30;;;;;;4918374;29;20058;-90
2021/09/09 10:53:37;;;;;;;31.88;19.52;;;23.20;98.40;;;;;;4917100;29;20024;-93
2021/09/09 10:56:24;;;;;;;34.33;20.77;;;23.20;98.50;;;;;;4916807;29;20044;-91
2021/09/09 10:59:10;;;;;;;33.30;19.75;;;23.20;98.40;;;;;;4917910;29;20478;-92
2021/09/09 11:01:37;;;;;;;34.90;20.38;;;23.10;98.40;;;;;;4915452;29;20036;-92
2021/09/09 11:04:04;;;;;;;32.28;20.77;;;23.00;98.60;;;;;;4918012;29;20503;-91
2021/09/09 11:06:29;;;;;;;32.92;19.35;;;22.80;98.90;;;;;;4918024;29;20508;-92
2021/09/09 11:08:57;;;;;;;33.08;20.13;;;22.80;99.30;;;;;;4918254;29;20028;-91
2021/09/09 11:11:30;;;;;;;30.33;21.88;;;22.80;99.50;;;;;;4934805;29;20035;-92
2021/09/09 11:14:03;;;;;;;35.63;21.77;;;22.90;99.70;;;;;;4934413;29;20119;-92
2021/09/09 11:16:29;;;;;;;37.63;21.33;;;22.80;99.70;;;;;;4919711;29;20519;-91
2021/09/09 11:18:56;;;;;;;35.15;21.35;;;22.80;99.80;;;;;;4919720;29;20374;-91
2021/09/09 11:21:32;;;;;;;32.75;21.65;;;22.80;99.90;;;;;;4934601;29;20394;-92
2021/09/09 11:24:00;;;;;;;29.95;19.45;;;22.90;99.90;;;;;;4932028;29;20025;-93
2021/09/09 11:26:26;;;;;;;26.42;15.90;;;22.90;99.80;;;;;;4917228;29;20079;-92
2021/09/09 11:28:53;;;;;;;26.83;15.85;;;23.00;99.70;;;;;;4917562;29;20454;-91
2021/09/09 11:31:21;;;;;;;30.13;16.75;;;23.10;99.40;;;;;;4918126;29;20086;-92
2021/09/09 11:33:48;;;;;;;29.65;18.35;;;23.30;99.20;;;;;;4917147;29;20031;-91
2021/09/09 11:36:14;;;;;;;27.35;16.75;;;23.40;98.70;;;;;;4917987;29;20489;-89
2021/09/09 11:38:40;;;;;;;23.95;16.35;;;23.60;98.40;;;;;;4919214;29;20066;-91
2021/09/09 11:41:16;;;;;;;27.92;15.27;;;23.90;97.90;;;;;;4924405;29;20036;-93
2021/09/09 11:43:50;;;;;;;22.67;16.20;;;24.00;97.20;;;;;;4943922;29;20020;-91
2021/09/09 11:46:35;;;;;;;27.05;16.75;;;24.10;96.60;;;;;;4934834;29;20028;-90
2021/09/09 11:49:29;;;;;;;28.13;16.75;;;24.10;95.90;;;;;;4918852;29;20036;-91
2021/09/09 11:55:32;;;;;;;19.08;13.05;;;24.00;95.60;;;;;;5058426;23;20046;-91
2021/09/09 11:57:58;;;;;;;20.98;13.02;;;24.10;95.50;;;;;;4946229;29;20051;-93
2021/09/09 12:00:26;;;;;;;21.13;14.75;;;24.10;95.30;;;;;;4954420;28;20043;-92
2021/09/09 12:02:53;;;;;;;21.45;13.73;;;24.20;95.00;;;;;;4955548;29;20057;-92
2021/09/09 12:05:19;;;;;;;20.30;12.75;;;24.20;94.70;;;;;;4948809;29;20428;-93
2021/09/09 12:07:45;;;;;;;22.35;14.73;;;24.30;94.60;;;;;;4953958;28;20489;-93
2021/09/09 12:10:19;;;;;;;21.27;13.38;;;24.30;94.40;;;;;;4948254;29;20024;-91
2021/09/09 12:12:56;;;;;;;23.40;15.38;;;24.30;94.20;;;;;;4956171;28;20061;-92
2021/09/09 12:15:25;;;;;;;21.08;12.60;;;24.20;93.80;;;;;;4948191;28;20031;-92
2021/09/09 12:17:51;;;;;;;22.95;13.63;;;24.20;94.00;;;;;;4966837;28;20031;-91
2021/09/09 12:20:24;;;;;;;20.25;14.57;;;24.20;94.20;;;;;;4954712;28;20101;-93
2021/09/09 12:22:55;;;;;;;21.35;14.95;;;24.10;94.10;;;;;;4965886;28;20027;-91
2021/09/09 12:25:27;;;;;;;21.40;14.57;;;24.10;94.20;;;;;;4958564;28;20123;-92
2021/09/09 12:28:04;;;;;;;21.25;14.20;;;24.20;94.20;;;;;;4960937;28;20026;-91
2021/09/09 12:30:36;;;;;;;21.50;14.63;;;24.20;94.00;;;;;;4951935;29;20023;-92
2021/09/09 12:33:22;;;;;;;24.00;12.90;;;24.10;93.90;;;;;;4934004;29;20030;-91
2021/09/09 12:36:18;;;;;;;18.77;11.73;;;24.20;93.90;;;;;;4946904;29;20485;-91
2021/09/09 12:38:46;;;;;;;20.50;12.15;;;24.30;93.50;;;;;;4937059;29;20126;-90
2021/09/09 12:41:21;;;;;;;19.55;11.90;;;24.30;93.20;;;;;;4932493;29;20043;-90